Terminal Aerodrome Forecast
Issued by NWS Cleveland, OH

Home | Current Version | Previous Version | Graphics & Text | Print | Product List | Glossary On
Versions: 1 2 3 4 5 6 7 8 9 10 11 12 13 14 15 16 17 18 19 20
935
FTUS41 KCLE 152320
TAFCAK
TAF
KCAK 152320Z 1600/1624 20010KT 3SM -SN BKN015
      TEMPO 1600/1601 3/4SM -SN VV010
     FM160400 23007KT P6SM BKN015
     FM161200 24007KT P6SM BKN025
      TEMPO 1613/1617 SCT025=

USA.gov is the U.S. government's official web portal to all federal, state and local government web resources and services.